Time;durP1;ratioP1;P1;durP2;ratioP2;P2;SDS_P1;SDS_P2;PMS_P1;PMS_P2;Temp;Humidity;BMP_temperature;BMP_pressure;BME280_temperature;BME280_humidity;BME280_pressure;Samples;Min_cycle;Max_cycle;Signal;HPM_P1;HPM_P2
2024/03/03 00:00:35;;;;;;;141.85;58.00;;;;;;;3.27;100.00;94373.41;2098914;28;20029;-57
2024/03/03 00:01:36;;;;;;;157.73;64.20;;;;;;;3.23;100.00;94371.06;2098825;28;20025;-57
2024/03/03 00:02:37;;;;;;;139.80;58.95;;;;;;;3.23;100.00;94371.88;2098972;28;20055;-57
2024/03/03 00:03:39;;;;;;;136.77;56.42;;;;;;;3.16;100.00;94369.69;2097932;28;20045;-57
2024/03/03 00:04:40;;;;;;;146.65;61.78;;;;;;;3.11;100.00;94369.06;2098368;28;20055;-57
2024/03/03 00:05:41;;;;;;;144.98;60.08;;;;;;;3.06;100.00;94366.69;2097713;28;20048;-58
2024/03/03 00:06:42;;;;;;;152.15;61.40;;;;;;;3.01;100.00;94366.03;2098093;28;20052;-58
2024/03/03 00:07:43;;;;;;;144.32;61.55;;;;;;;3.08;100.00;94370.00;2099041;28;20040;-57
2024/03/03 00:08:44;;;;;;;139.43;60.40;;;;;;;3.13;100.00;94362.94;2098464;28;20044;-58
2024/03/03 00:09:45;;;;;;;147.77;61.40;;;;;;;3.12;100.00;94366.41;2098861;28;20400;-58
2024/03/03 00:10:46;;;;;;;141.68;60.97;;;;;;;3.12;100.00;94363.84;2098279;28;20048;-58
2024/03/03 00:11:47;;;;;;;138.45;59.50;;;;;;;3.09;100.00;94363.97;2098286;28;20048;-57
2024/03/03 00:12:49;;;;;;;145.65;56.80;;;;;;;2.99;100.00;94367.84;2097740;28;20045;-58
2024/03/03 00:13:50;;;;;;;143.95;57.45;;;;;;;2.93;100.00;94360.41;2098719;28;20039;-57
2024/03/03 00:14:51;;;;;;;144.50;58.38;;;;;;;2.88;100.00;94365.75;2097938;28;20404;-57
2024/03/03 00:15:52;;;;;;;145.85;58.85;;;;;;;2.89;100.00;94359.72;2098705;28;20024;-58
2024/03/03 00:16:53;;;;;;;150.07;57.90;;;;;;;2.89;100.00;94362.28;2098022;28;20055;-58
2024/03/03 00:17:54;;;;;;;149.00;58.50;;;;;;;2.88;100.00;94366.56;2098624;28;20044;-58
2024/03/03 00:18:56;;;;;;;140.80;57.55;;;;;;;2.87;100.00;94358.97;2098504;28;20044;-57
2024/03/03 00:19:57;;;;;;;149.75;60.13;;;;;;;2.88;100.00;94364.00;2097954;28;20040;-58
2024/03/03 00:20:58;;;;;;;155.43;61.55;;;;;;;2.88;100.00;94360.59;2098043;28;20071;-58
2024/03/03 00:21:59;;;;;;;149.13;55.60;;;;;;;2.95;100.00;94356.06;2098506;28;20024;-57
2024/03/03 00:23:00;;;;;;;153.38;59.60;;;;;;;2.87;100.00;94362.34;2098533;28;20036;-57
2024/03/03 00:24:02;;;;;;;162.10;64.55;;;;;;;2.90;100.00;94360.56;2097946;28;20052;-58
2024/03/03 00:25:03;;;;;;;165.18;64.85;;;;;;;2.87;100.00;94354.66;2098383;28;20037;-58
2024/03/03 00:26:05;;;;;;;173.32;64.72;;;;;;;2.85;100.00;94359.00;2097737;28;20040;-57
2024/03/03 00:27:06;;;;;;;180.15;66.28;;;;;;;2.80;100.00;94358.38;2098617;28;20043;-57
2024/03/03 00:28:07;;;;;;;155.88;61.50;;;;;;;2.84;100.00;94354.78;2098192;28;20044;-57
2024/03/03 00:29:08;;;;;;;161.20;63.10;;;;;;;2.86;100.00;94357.28;2098633;28;20040;-57
2024/03/03 00:30:09;;;;;;;154.57;62.10;;;;;;;2.84;100.00;94354.78;2097834;28;20055;-57
2024/03/03 00:31:11;;;;;;;167.13;59.05;;;;;;;2.85;100.00;94356.44;2089300;28;20044;-57
2024/03/03 00:32:12;;;;;;;158.82;59.33;;;;;;;2.83;100.00;94354.84;2089610;28;20048;-57
2024/03/03 00:33:13;;;;;;;161.93;58.00;;;;;;;2.87;100.00;94349.53;2089703;28;20041;-57
2024/03/03 00:34:14;;;;;;;147.57;49.45;;;;;;;2.86;100.00;94355.56;2074020;28;20030;-56
2024/03/03 00:35:15;;;;;;;151.43;50.88;;;;;;;2.86;100.00;94345.31;2073754;28;20053;-57
2024/03/03 00:36:16;;;;;;;154.10;59.28;;;;;;;2.86;100.00;94354.72;2090179;28;20048;-56
2024/03/03 00:37:18;;;;;;;144.77;52.63;;;;;;;2.88;100.00;94356.31;2089452;28;20040;-57
2024/03/03 00:38:19;;;;;;;148.07;51.92;;;;;;;2.86;100.00;94352.16;2081353;28;20041;-56
2024/03/03 00:39:20;;;;;;;162.60;61.20;;;;;;;2.80;100.00;94345.56;2081218;28;20100;-57
2024/03/03 00:40:21;;;;;;;156.70;56.83;;;;;;;2.79;100.00;94345.63;2081356;28;20485;-57
2024/03/03 00:41:22;;;;;;;134.52;53.20;;;;;;;2.77;100.00;94340.56;2081140;28;20057;-57
2024/03/03 00:42:24;;;;;;;164.30;60.22;;;;;;;2.76;100.00;94346.59;2089532;28;20040;-57
2024/03/03 00:43:25;;;;;;;157.65;60.67;;;;;;;2.75;100.00;94339.78;2089324;28;20045;-57
2024/03/03 00:44:26;;;;;;;141.55;52.47;;;;;;;2.76;100.00;94345.78;2089550;28;20040;-57
2024/03/03 00:45:27;;;;;;;141.52;52.22;;;;;;;2.78;100.00;94349.09;2098516;28;20043;-56
2024/03/03 00:46:28;;;;;;;158.70;60.00;;;;;;;2.73;100.00;94346.75;2089817;28;20041;-56
2024/03/03 00:47:29;;;;;;;161.70;57.20;;;;;;;2.74;100.00;94345.00;2081611;28;20493;-57
2024/03/03 00:48:30;;;;;;;148.10;55.08;;;;;;;2.75;100.00;94344.09;2089001;28;20045;-57
2024/03/03 00:49:31;;;;;;;145.77;52.95;;;;;;;2.75;100.00;94349.22;2089237;28;20048;-57
2024/03/03 00:50:32;;;;;;;153.40;54.90;;;;;;;2.74;100.00;94342.44;2089669;28;20044;-56
2024/03/03 00:51:36;;;;;;;161.30;62.75;;;;;;;2.69;100.00;94340.06;2089286;28;20045;-58
2024/03/03 00:52:37;;;;;;;157.30;60.17;;;;;;;2.67;100.00;94343.59;2089625;28;20045;-57
2024/03/03 00:53:38;;;;;;;150.85;55.78;;;;;;;2.68;100.00;94342.72;2097808;28;20048;-57
2024/03/03 00:54:40;;;;;;;165.35;64.88;;;;;;;2.63;100.00;94345.47;2097706;28;20047;-57
2024/03/03 00:55:46;;;;;;;157.70;60.95;;;;;;;2.59;100.00;94346.47;2097838;28;20052;-57
2024/03/03 00:56:48;;;;;;;141.27;50.15;;;;;;;2.56;100.00;94337.19;2089667;28;20481;-57
2024/03/03 00:57:50;;;;;;;134.40;49.33;;;;;;;2.63;100.00;94332.66;2080774;28;20045;-57
2024/03/03 00:58:51;;;;;;;156.48;59.33;;;;;;;2.61;100.00;94324.19;2089483;28;20037;-57
2024/03/03 00:59:52;;;;;;;154.95;59.42;;;;;;;2.61;100.00;94329.31;2098309;28;20036;-57
2024/03/03 01:00:53;;;;;;;145.55;55.13;;;;;;;2.56;100.00;94329.50;2098092;28;20400;-57
2024/03/03 01:01:54;;;;;;;157.77;60.25;;;;;;;2.51;100.00;94318.59;2098322;28;20032;-57
2024/03/03 01:02:55;;;;;;;162.23;61.20;;;;;;;2.52;100.00;94317.72;2098014;28;20123;-57
2024/03/03 01:03:56;;;;;;;152.55;57.03;;;;;;;2.50;100.00;94318.69;2098130;28;20044;-57
2024/03/03 01:04:57;;;;;;;151.73;53.45;;;;;;;2.51;100.00;94310.09;2097749;28;20476;-57
2024/03/03 01:05:58;;;;;;;156.43;58.95;;;;;;;2.51;100.00;94313.47;2097792;28;20044;-57
2024/03/03 01:06:59;;;;;;;148.32;55.22;;;;;;;2.56;100.00;94308.16;2088734;28;20040;-57
2024/03/03 01:08:01;;;;;;;160.07;56.60;;;;;;;2.57;100.00;94312.41;2080609;28;20041;-57
2024/03/03 01:09:02;;;;;;;148.48;59.47;;;;;;;2.59;100.00;94315.72;2081261;28;20420;-57
2024/03/03 01:10:05;;;;;;;153.35;57.40;;;;;;;2.56;100.00;94310.72;2096954;28;20049;-57
2024/03/03 01:11:06;;;;;;;157.20;62.30;;;;;;;2.52;100.00;94306.66;2089400;28;20048;-57
2024/03/03 01:12:07;;;;;;;160.80;60.97;;;;;;;2.55;100.00;94316.78;2088556;28;20073;-57
2024/03/03 01:13:08;;;;;;;167.05;65.10;;;;;;;2.55;100.00;94311.63;2097458;28;20397;-57
2024/03/03 01:14:09;;;;;;;154.70;61.08;;;;;;;2.48;100.00;94313.63;2089455;28;20602;-57
2024/03/03 01:15:10;;;;;;;173.93;67.57;;;;;;;2.46;100.00;94307.75;2088848;28;20051;-57
2024/03/03 01:16:11;;;;;;;169.07;66.65;;;;;;;2.47;100.00;94314.53;2097785;28;20059;-57
2024/03/03 01:17:12;;;;;;;176.82;66.95;;;;;;;2.39;100.00;94307.16;2097750;28;20044;-57
2024/03/03 01:18:13;;;;;;;169.23;61.00;;;;;;;2.39;100.00;94306.34;2098000;28;20047;-57
2024/03/03 01:19:15;;;;;;;176.45;68.82;;;;;;;2.37;100.00;94305.56;2098187;28;20396;-57
2024/03/03 01:20:16;;;;;;;182.88;66.47;;;;;;;2.42;100.00;94311.31;2089637;28;20029;-57
2024/03/03 01:21:19;;;;;;;178.20;63.75;;;;;;;2.47;100.00;94304.28;2088744;28;20048;-57
2024/03/03 01:22:21;;;;;;;176.88;66.45;;;;;;;2.42;100.00;94303.63;2089137;28;20509;-57
2024/03/03 01:23:22;;;;;;;172.63;67.63;;;;;;;2.47;100.00;94298.31;2089514;28;20044;-57
2024/03/03 01:24:23;;;;;;;175.68;66.63;;;;;;;2.40;100.00;94298.56;2097737;28;20032;-57
2024/03/03 01:25:24;;;;;;;171.23;65.93;;;;;;;2.31;100.00;94303.25;2097364;28;20053;-58
2024/03/03 01:26:25;;;;;;;159.07;55.15;;;;;;;2.30;100.00;94299.88;2097655;28;20059;-57
2024/03/03 01:27:27;;;;;;;171.88;67.05;;;;;;;2.33;100.00;94294.63;2089518;28;20052;-57
2024/03/03 01:28:28;;;;;;;178.15;62.38;;;;;;;2.36;100.00;94303.91;2089316;28;20509;-57
2024/03/03 01:29:29;;;;;;;168.18;63.30;;;;;;;2.33;100.00;94293.78;2097585;28;20055;-57
2024/03/03 01:30:30;;;;;;;165.50;64.38;;;;;;;2.33;100.00;94297.19;2098305;28;20044;-57
2024/03/03 01:31:32;;;;;;;160.55;54.42;;;;;;;2.36;100.00;94291.94;2088383;28;20071;-57
2024/03/03 01:32:33;;;;;;;161.27;55.25;;;;;;;2.33;100.00;94297.19;2088247;28;20437;-57
2024/03/03 01:33:34;;;;;;;166.52;55.70;;;;;;;2.37;100.00;94295.31;2097028;28;20064;-57
2024/03/03 01:34:35;;;;;;;167.05;61.10;;;;;;;2.32;100.00;94297.22;2098179;28;20040;-57
2024/03/03 01:35:36;;;;;;;184.95;64.90;;;;;;;2.30;100.00;94292.19;2097764;28;20053;-57
2024/03/03 01:36:38;;;;;;;198.32;70.53;;;;;;;2.27;100.00;94296.59;2089473;28;20056;-58
2024/03/03 01:37:39;;;;;;;172.85;60.00;;;;;;;2.31;100.00;94295.59;2089522;28;20041;-57
2024/03/03 01:38:40;;;;;;;178.07;64.95;;;;;;;2.32;100.00;94290.38;2097963;28;20036;-57
2024/03/03 01:39:42;;;;;;;158.95;53.88;;;;;;;2.32;100.00;94297.22;2098284;28;20044;-57
2024/03/03 01:40:49;;;;;;;158.57;53.83;;;;;;;2.37;100.00;94288.44;2096922;28;20048;-57
2024/03/03 01:41:51;;;;;;;156.23;54.03;;;;;;;2.36;100.00;94291.94;2088974;28;20115;-57
2024/03/03 01:42:55;;;;;;;168.07;60.38;;;;;;;2.33;100.00;94286.09;2088283;28;20057;-57
2024/03/03 01:43:58;;;;;;;177.50;67.35;;;;;;;2.30;100.00;94288.78;2097498;28;20048;-57
2024/03/03 01:44:59;;;;;;;183.05;64.47;;;;;;;2.30;100.00;94288.78;2098225;28;20032;-57
2024/03/03 01:46:00;;;;;;;184.18;65.82;;;;;;;2.28;100.00;94282.91;2089257;28;20051;-57
2024/03/03 01:47:01;;;;;;;179.27;67.30;;;;;;;2.30;100.00;94281.94;2089270;28;20063;-58
2024/03/03 01:48:03;;;;;;;160.40;59.60;;;;;;;2.29;100.00;94280.25;2081190;28;20596;-57
2024/03/03 01:49:06;;;;;;;184.70;68.00;;;;;;;2.26;100.00;94282.13;2072884;28;20046;-57
2024/03/03 01:50:07;;;;;;;179.32;69.97;;;;;;;2.25;100.00;94286.44;2073002;28;20045;-58
2024/03/03 01:51:08;;;;;;;183.35;72.28;;;;;;;2.25;100.00;94283.88;2072884;28;20090;-57
2024/03/03 01:52:10;;;;;;;185.70;66.15;;;;;;;2.24;100.00;94287.31;2073112;28;20050;-57
2024/03/03 01:53:11;;;;;;;176.13;58.30;;;;;;;2.26;100.00;94282.13;2088768;28;20045;-57
2024/03/03 01:54:12;;;;;;;197.57;70.85;;;;;;;2.23;100.00;94284.81;2064782;28;20502;-57
2024/03/03 01:55:14;;;;;;;181.30;68.03;;;;;;;2.20;100.00;94280.66;2072895;28;20038;-57
2024/03/03 01:56:15;;;;;;;199.15;71.57;;;;;;;2.16;100.00;94279.13;2072861;28;20042;-57
2024/03/03 01:57:18;;;;;;;193.57;70.85;;;;;;;2.13;100.00;94282.63;2056803;28;20042;-57
2024/03/03 01:58:19;;;;;;;180.30;63.42;;;;;;;2.16;100.00;94279.13;2073129;28;20052;-57
2024/03/03 01:59:20;;;;;;;189.27;69.90;;;;;;;2.17;100.00;94273.94;2072873;28;20045;-57
2024/03/03 02:00:21;;;;;;;188.68;70.68;;;;;;;2.16;100.00;94279.94;2064993;28;20064;-57
2024/03/03 02:01:22;;;;;;;204.02;70.00;;;;;;;2.08;100.00;94273.47;2073014;28;20137;-57
2024/03/03 02:02:26;;;;;;;180.30;59.67;;;;;;;2.08;100.00;94270.91;2065005;28;20453;-57
2024/03/03 02:03:28;;;;;;;196.18;71.57;;;;;;;2.11;100.00;94263.09;2073488;28;20053;-57
2024/03/03 02:04:29;;;;;;;188.80;63.60;;;;;;;2.13;100.00;94271.56;2072398;28;20050;-57
2024/03/03 02:05:30;;;;;;;198.57;74.90;;;;;;;2.10;100.00;94264.00;2071954;28;20045;-58
2024/03/03 02:06:33;;;;;;;212.57;72.88;;;;;;;2.10;100.00;94267.41;2080822;28;20057;-56
2024/03/03 02:07:34;;;;;;;205.48;71.68;;;;;;;2.09;100.00;94267.47;2098030;28;20373;-57
2024/03/03 02:08:35;;;;;;;203.10;75.55;;;;;;;2.09;100.00;94268.31;2097754;28;20060;-57
2024/03/03 02:09:36;;;;;;;211.63;74.55;;;;;;;2.05;100.00;94264.19;2080221;28;20041;-57
2024/03/03 02:10:37;;;;;;;189.07;70.50;;;;;;;2.02;100.00;94261.78;2072717;28;20045;-57
2024/03/03 02:11:39;;;;;;;203.95;72.47;;;;;;;2.01;100.00;94260.13;2089305;28;20417;-57
2024/03/03 02:12:40;;;;;;;203.52;70.38;;;;;;;2.00;100.00;94263.56;2089144;28;20052;-57
2024/03/03 02:13:41;;;;;;;195.50;70.03;;;;;;;1.99;100.00;94257.59;2080908;28;20048;-57
2024/03/03 02:14:43;;;;;;;203.48;65.32;;;;;;;2.04;100.00;94256.59;2072782;28;20045;-57
2024/03/03 02:15:44;;;;;;;190.98;60.72;;;;;;;2.05;100.00;94261.63;2080294;28;20049;-57
2024/03/03 02:16:45;;;;;;;194.25;65.53;;;;;;;2.07;100.00;94261.59;2090524;28;20037;-57
2024/03/03 02:17:46;;;;;;;189.32;63.92;;;;;;;2.06;100.00;94252.22;2089831;28;20041;-57
2024/03/03 02:18:47;;;;;;;190.82;61.50;;;;;;;2.09;100.00;94257.25;2074523;28;20049;-57
2024/03/03 02:19:48;;;;;;;196.32;67.72;;;;;;;2.09;100.00;94258.06;2074421;28;20045;-56
2024/03/03 02:20:49;;;;;;;191.25;65.88;;;;;;;2.08;100.00;94251.25;2098369;28;20056;-57
2024/03/03 02:21:51;;;;;;;189.05;59.10;;;;;;;2.05;100.00;94250.56;2098332;28;20063;-57
2024/03/03 02:22:52;;;;;;;211.80;69.00;;;;;;;2.09;100.00;94257.25;2099461;28;20036;-56
2024/03/03 02:23:53;;;;;;;193.95;58.45;;;;;;;2.07;100.00;94249.63;2098878;28;20472;-57
2024/03/03 02:24:54;;;;;;;180.52;61.17;;;;;;;2.05;100.00;94250.56;2099713;28;20027;-57
2024/03/03 02:25:55;;;;;;;200.90;72.03;;;;;;;2.02;100.00;94256.66;2099455;28;20043;-57
2024/03/03 02:26:56;;;;;;;192.18;68.47;;;;;;;2.03;100.00;94252.34;2098412;28;20044;-57
2024/03/03 02:27:57;;;;;;;185.45;54.13;;;;;;;2.11;100.00;94255.44;2090451;28;20386;-57
2024/03/03 02:28:58;;;;;;;208.38;71.70;;;;;;;2.08;100.00;94255.56;2089950;28;20051;-57
2024/03/03 02:30:00;;;;;;;180.07;62.90;;;;;;;2.06;100.00;94263.31;2081328;28;20045;-57
2024/03/03 02:31:01;;;;;;;189.88;64.13;;;;;;;2.06;100.00;94259.91;2090428;28;20041;-58
2024/03/03 02:32:03;;;;;;;185.30;59.55;;;;;;;2.05;100.00;94260.81;2099130;28;20041;-57
2024/03/03 02:33:04;;;;;;;190.90;71.50;;;;;;;2.03;100.00;94263.41;2090617;28;20116;-57
2024/03/03 02:34:05;;;;;;;180.15;58.30;;;;;;;2.01;100.00;94254.16;2090556;28;20032;-57
2024/03/03 02:35:07;;;;;;;185.73;66.95;;;;;;;2.02;100.00;94255.81;2089516;28;20527;-57
2024/03/03 02:36:09;;;;;;;188.63;65.25;;;;;;;1.97;100.00;94256.00;2089686;28;20041;-57
2024/03/03 02:37:10;;;;;;;200.57;68.72;;;;;;;1.96;100.00;94252.63;2090079;28;20045;-57
2024/03/03 02:38:11;;;;;;;186.40;60.22;;;;;;;1.94;100.00;94254.41;2089662;28;20528;-57
2024/03/03 02:39:12;;;;;;;183.20;58.72;;;;;;;1.94;100.00;94256.13;2090702;28;20037;-57
2024/03/03 02:40:13;;;;;;;184.98;58.72;;;;;;;1.97;100.00;94254.28;2089978;28;20055;-57
2024/03/03 02:41:14;;;;;;;167.55;55.92;;;;;;;1.97;100.00;94251.72;2099185;28;20052;-57
2024/03/03 02:42:15;;;;;;;200.00;70.28;;;;;;;1.93;100.00;94255.31;2098998;28;20048;-57
2024/03/03 02:43:16;;;;;;;203.75;72.78;;;;;;;1.94;100.00;94258.69;2089993;28;20040;-57
2024/03/03 02:44:17;;;;;;;183.98;68.03;;;;;;;1.93;100.00;94257.03;2090540;28;20041;-57
2024/03/03 02:45:18;;;;;;;203.82;72.40;;;;;;;1.91;100.00;94253.72;2099320;28;20043;-57
2024/03/03 02:46:20;;;;;;;196.00;67.03;;;;;;;1.94;100.00;94254.41;2090422;28;20524;-57
2024/03/03 02:47:21;;;;;;;190.70;71.20;;;;;;;1.95;100.00;94256.09;2090108;28;20208;-57
2024/03/03 02:48:22;;;;;;;203.77;74.20;;;;;;;1.92;100.00;94252.81;2099398;28;20048;-57
2024/03/03 02:49:23;;;;;;;195.65;71.97;;;;;;;1.89;100.00;94253.75;2099016;28;20044;-57
2024/03/03 02:50:24;;;;;;;188.88;70.47;;;;;;;1.89;100.00;94258.88;2099590;28;20040;-57
2024/03/03 02:51:26;;;;;;;213.38;73.45;;;;;;;1.89;100.00;94251.19;2099368;28;20035;-57
2024/03/03 02:52:27;;;;;;;212.85;74.05;;;;;;;1.87;100.00;94254.72;2098571;28;20049;-57
2024/03/03 02:53:28;;;;;;;212.32;76.18;;;;;;;1.84;100.00;94248.00;2098340;28;20111;-57
2024/03/03 02:54:30;;;;;;;189.68;71.78;;;;;;;1.89;100.00;94252.94;2098753;28;20032;-57
2024/03/03 02:55:31;;;;;;;209.27;73.45;;;;;;;1.86;100.00;94255.63;2090195;28;20044;-57
2024/03/03 02:56:32;;;;;;;183.55;62.63;;;;;;;1.91;100.00;94249.41;2090098;28;20060;-56
2024/03/03 02:57:33;;;;;;;199.75;66.10;;;;;;;1.88;100.00;94244.44;2090046;28;20072;-57
2024/03/03 02:58:34;;;;;;;193.82;65.43;;;;;;;1.87;100.00;94249.59;2090342;28;20048;-57
2024/03/03 02:59:35;;;;;;;196.38;68.05;;;;;;;1.91;100.00;94248.59;2089406;28;20524;-57
2024/03/03 03:00:36;;;;;;;196.48;71.13;;;;;;;1.89;100.00;94246.09;2099184;28;20044;-57
2024/03/03 03:01:37;;;;;;;189.52;65.32;;;;;;;1.91;100.00;94248.59;2099104;28;20051;-57
2024/03/03 03:02:39;;;;;;;189.70;63.30;;;;;;;1.92;100.00;94242.56;2090145;28;20123;-57
2024/03/03 03:03:40;;;;;;;197.80;72.15;;;;;;;1.94;100.00;94251.03;2082088;28;20109;-57
2024/03/03 03:04:41;;;;;;;209.60;74.85;;;;;;;1.91;100.00;94253.72;2090103;28;20052;-57
2024/03/03 03:05:42;;;;;;;207.40;75.53;;;;;;;1.90;100.00;94255.44;2099288;28;20044;-56
2024/03/03 03:06:43;;;;;;;216.93;74.53;;;;;;;1.90;100.00;94250.31;2098484;28;20052;-57
2024/03/03 03:07:45;;;;;;;200.73;75.55;;;;;;;1.92;100.00;94253.63;2098601;28;20049;-57
2024/03/03 03:08:46;;;;;;;193.43;73.53;;;;;;;1.89;100.00;94258.88;2098374;28;20053;-58
2024/03/03 03:09:47;;;;;;;208.27;72.32;;;;;;;1.91;100.00;94257.09;2098018;28;20051;-57
2024/03/03 03:10:48;;;;;;;211.57;76.65;;;;;;;1.91;100.00;94257.09;2089529;28;20052;-57
2024/03/03 03:11:49;;;;;;;185.93;64.80;;;;;;;1.91;100.00;94257.09;2082175;28;20478;-58
2024/03/03 03:12:50;;;;;;;205.32;70.90;;;;;;;1.89;100.00;94256.31;2089650;28;20052;-58
2024/03/03 03:13:52;;;;;;;196.70;71.97;;;;;;;1.88;100.00;94254.66;2098749;28;20056;-58
2024/03/03 03:14:54;;;;;;;201.20;69.55;;;;;;;1.90;100.00;94257.19;2098467;28;20044;-58
2024/03/03 03:15:55;;;;;;;206.85;76.80;;;;;;;1.91;100.00;94248.59;2098441;28;20052;-58
2024/03/03 03:16:58;;;;;;;202.75;70.82;;;;;;;1.88;100.00;94254.66;2098776;28;20051;-58
2024/03/03 03:17:59;;;;;;;213.38;75.57;;;;;;;1.92;100.00;94252.81;2097916;28;20516;-57
2024/03/03 03:19:00;;;;;;;219.85;73.47;;;;;;;1.86;100.00;94250.50;2089616;28;20048;-58
2024/03/03 03:20:01;;;;;;;207.90;75.10;;;;;;;1.84;100.00;94249.72;2089665;28;20047;-57
2024/03/03 03:21:06;;;;;;;206.30;75.40;;;;;;;1.83;100.00;94255.75;2089662;28;20048;-58
2024/03/03 03:22:07;;;;;;;209.55;72.55;;;;;;;1.80;100.00;94246.47;2090119;28;20044;-58
2024/03/03 03:23:08;;;;;;;205.93;72.15;;;;;;;1.80;100.00;94246.47;2090435;28;20624;-58
2024/03/03 03:24:09;;;;;;;201.75;74.32;;;;;;;1.79;100.00;94256.75;2098202;28;20044;-58
2024/03/03 03:25:12;;;;;;;186.25;63.97;;;;;;;1.82;100.00;94249.81;2099008;28;20029;-58
2024/03/03 03:26:13;;;;;;;199.30;72.22;;;;;;;1.86;100.00;94253.06;2098354;28;20052;-58
2024/03/03 03:27:14;;;;;;;204.13;70.55;;;;;;;1.84;100.00;94249.72;2098645;28;20404;-58
2024/03/03 03:28:15;;;;;;;204.95;74.97;;;;;;;1.81;100.00;94249.84;2098324;28;20507;-58
2024/03/03 03:29:16;;;;;;;222.30;73.28;;;;;;;1.79;100.00;94260.16;2099039;28;20035;-59
2024/03/03 03:30:18;;;;;;;194.35;63.05;;;;;;;1.80;100.00;94259.28;2098600;28;20053;-58
2024/03/03 03:31:19;;;;;;;209.35;73.72;;;;;;;1.81;100.00;94253.25;2098922;28;20416;-58
2024/03/03 03:32:20;;;;;;;198.85;66.45;;;;;;;1.82;100.00;94251.50;2098996;28;20400;-58
2024/03/03 03:33:21;;;;;;;184.80;67.30;;;;;;;1.86;100.00;94253.88;2098899;28;20045;-58
2024/03/03 03:34:22;;;;;;;215.00;71.28;;;;;;;1.83;100.00;94253.19;2099079;28;20032;-57
2024/03/03 03:35:24;;;;;;;198.85;67.40;;;;;;;1.80;100.00;94251.59;2099100;28;20051;-58
2024/03/03 03:36:25;;;;;;;195.60;72.60;;;;;;;1.77;100.00;94250.00;2098260;28;20404;-58
2024/03/03 03:37:26;;;;;;;223.68;75.45;;;;;;;1.79;100.00;94254.19;2098966;28;20024;-58
2024/03/03 03:38:27;;;;;;;198.68;64.35;;;;;;;1.75;100.00;94245.81;2098417;28;20056;-58
2024/03/03 03:39:29;;;;;;;189.88;64.80;;;;;;;1.77;100.00;94250.00;2098929;28;20067;-58
2024/03/03 03:40:30;;;;;;;231.40;72.00;;;;;;;1.74;100.00;94246.72;2098384;28;20040;-58
2024/03/03 03:41:31;;;;;;;205.70;75.85;;;;;;;1.72;100.00;94251.91;2099175;28;20037;-58
2024/03/03 03:42:32;;;;;;;202.93;71.47;;;;;;;1.70;100.00;94245.19;2098271;28;20056;-58
2024/03/03 03:43:33;;;;;;;195.80;65.82;;;;;;;1.67;100.00;94252.97;2097906;28;20442;-58
2024/03/03 03:44:34;;;;;;;216.23;72.47;;;;;;;1.66;100.00;94253.88;2098239;28;20049;-58
2024/03/03 03:45:35;;;;;;;218.95;73.25;;;;;;;1.62;100.00;94253.16;2098671;28;20055;-57
2024/03/03 03:46:37;;;;;;;232.18;76.10;;;;;;;1.59;100.00;94255.03;2098855;28;20465;-57
2024/03/03 03:47:38;;;;;;;207.23;70.78;;;;;;;1.57;100.00;94259.34;2098236;28;20049;-58
2024/03/03 03:48:39;;;;;;;213.95;74.90;;;;;;;1.59;100.00;94263.53;2098502;28;20515;-58
2024/03/03 03:49:40;;;;;;;215.52;73.60;;;;;;;1.57;100.00;94261.91;2097811;28;20037;-58
2024/03/03 03:50:41;;;;;;;204.50;70.93;;;;;;;1.60;100.00;94254.13;2098920;28;20044;-57
2024/03/03 03:51:42;;;;;;;196.48;72.40;;;;;;;1.57;100.00;94261.91;2089940;28;20067;-58
2024/03/03 03:52:44;;;;;;;213.50;72.88;;;;;;;1.53;100.00;94262.03;2089887;28;20040;-58
2024/03/03 03:53:45;;;;;;;216.80;75.05;;;;;;;1.54;100.00;94271.38;2098441;28;20048;-57
2024/03/03 03:54:46;;;;;;;199.20;70.88;;;;;;;1.49;100.00;94263.03;2098665;28;20055;-58
2024/03/03 03:55:47;;;;;;;229.05;77.82;;;;;;;1.49;100.00;94263.03;2098567;28;20503;-58
2024/03/03 03:56:48;;;;;;;197.38;72.93;;;;;;;1.47;100.00;94264.00;2098709;28;20048;-58
2024/03/03 03:57:49;;;;;;;213.27;71.95;;;;;;;1.45;100.00;94263.25;2098573;28;20075;-58
2024/03/03 03:58:50;;;;;;;215.48;77.47;;;;;;;1.42;100.00;94266.75;2098434;28;20055;-58
2024/03/03 03:59:51;;;;;;;239.48;78.70;;;;;;;1.39;100.00;94261.78;2098100;28;20040;-58
2024/03/03 04:00:52;;;;;;;209.00;64.43;;;;;;;1.40;100.00;94265.16;2098848;28;20044;-58
2024/03/03 04:01:54;;;;;;;232.88;69.68;;;;;;;1.44;100.00;94259.84;2098984;28;20028;-58
2024/03/03 04:02:55;;;;;;;218.43;77.22;;;;;;;1.46;100.00;94262.34;2098543;28;20037;-58
2024/03/03 04:03:57;;;;;;;208.40;75.15;;;;;;;1.45;100.00;94264.06;2098823;28;20041;-58
2024/03/03 04:04:58;;;;;;;208.70;73.30;;;;;;;1.46;100.00;94267.47;2097845;28;20040;-58
2024/03/03 04:05:59;;;;;;;216.77;74.15;;;;;;;1.41;100.00;94261.69;2098279;28;20064;-58
2024/03/03 04:07:04;;;;;;;213.85;75.15;;;;;;;1.44;100.00;94271.78;2098859;28;20370;-58
2024/03/03 04:08:05;;;;;;;203.60;74.32;;;;;;;1.40;100.00;94271.09;2098732;28;20075;-58
2024/03/03 04:09:06;;;;;;;224.55;76.45;;;;;;;1.35;100.00;94269.59;2097993;28;20044;-58
2024/03/03 04:10:09;;;;;;;225.05;71.70;;;;;;;1.36;100.00;94268.72;2098327;28;20381;-58
2024/03/03 04:11:10;;;;;;;216.77;74.75;;;;;;;1.39;100.00;94271.13;2098690;28;20037;-58
2024/03/03 04:12:11;;;;;;;215.38;75.13;;;;;;;1.33;100.00;94267.94;2098829;28;20036;-58
2024/03/03 04:13:12;;;;;;;216.82;73.13;;;;;;;1.37;100.00;94268.66;2097927;28;20400;-58
2024/03/03 04:14:13;;;;;;;224.60;80.68;;;;;;;1.39;100.00;94266.88;2098344;28;20056;-58
2024/03/03 04:15:15;;;;;;;234.43;76.55;;;;;;;1.32;100.00;94270.56;2098131;28;20506;-58
2024/03/03 04:16:16;;;;;;;243.77;76.65;;;;;;;1.29;100.00;94268.94;2098780;28;20404;-59
2024/03/03 04:17:17;;;;;;;231.77;78.80;;;;;;;1.27;100.00;94267.34;2098048;28;20053;-58
2024/03/03 04:18:18;;;;;;;239.25;80.00;;;;;;;1.24;100.00;94272.59;2098697;28;20028;-59
2024/03/03 04:19:20;;;;;;;251.88;83.30;;;;;;;1.20;100.00;94273.56;2098519;28;20039;-59
2024/03/03 04:20:21;;;;;;;250.85;80.72;;;;;;;1.20;100.00;94276.13;2098257;28;20400;-59
2024/03/03 04:21:22;;;;;;;268.40;83.15;;;;;;;1.17;100.00;94271.13;2098270;28;20036;-58
2024/03/03 04:22:23;;;;;;;271.30;86.40;;;;;;;1.16;100.00;94275.44;2098631;28;20055;-58
2024/03/03 04:23:24;;;;;;;269.98;84.65;;;;;;;1.14;100.00;94276.38;2098296;28;20068;-58
2024/03/03 04:24:25;;;;;;;254.15;82.97;;;;;;;1.12;100.00;94278.97;2098779;28;20032;-59
2024/03/03 04:25:26;;;;;;;261.35;81.90;;;;;;;1.12;100.00;94278.97;2098392;28;20044;-59
2024/03/03 04:26:27;;;;;;;236.20;77.15;;;;;;;1.12;100.00;94275.59;2089274;28;20053;-59
2024/03/03 04:27:28;;;;;;;245.20;80.13;;;;;;;1.16;100.00;94280.53;2089610;28;20397;-59
2024/03/03 04:28:29;;;;;;;241.18;76.00;;;;;;;1.18;100.00;94268.53;2098255;28;20052;-58
2024/03/03 04:29:31;;;;;;;246.00;79.53;;;;;;;1.13;100.00;94275.56;2098876;28;20051;-59
2024/03/03 04:30:33;;;;;;;217.25;77.15;;;;;;;1.13;100.00;94269.59;2089610;28;20040;-59
2024/03/03 04:31:34;;;;;;;228.95;78.70;;;;;;;1.21;100.00;94268.41;2089566;28;20428;-59
2024/03/03 04:32:35;;;;;;;246.70;79.50;;;;;;;1.24;100.00;94270.03;2097850;28;20044;-59
2024/03/03 04:33:36;;;;;;;242.20;79.88;;;;;;;1.18;100.00;94273.66;2098265;28;20049;-59
2024/03/03 04:34:39;;;;;;;236.73;81.95;;;;;;;1.12;100.00;94273.88;2098452;28;20044;-58
2024/03/03 04:35:42;;;;;;;251.55;83.00;;;;;;;1.11;100.00;94264.53;2098541;28;20044;-59
2024/03/03 04:36:47;;;;;;;255.32;83.78;;;;;;;1.13;100.00;94261.94;2098203;28;20539;-58
2024/03/03 04:37:48;;;;;;;266.13;85.75;;;;;;;1.16;100.00;94265.19;2098524;28;20476;-59
2024/03/03 04:38:49;;;;;;;233.45;79.32;;;;;;;1.20;100.00;94266.72;2098199;28;20040;-59